Time;durP1;ratioP1;P1;durP2;ratioP2;P2;SDS_P1;SDS_P2;PMS_P1;PMS_P2;Temp;Humidity;BMP_temperature;BMP_pressure;BME280_temperature;BME280_humidity;BME280_pressure;Samples;Min_cycle;Max_cycle;Signal;HPM_P1;HPM_P2
2021/04/15 01:19:50;;;;;;;39.18;24.65;;;;;;;8.90;66.84;99087.78;1753352;79;21316;-89
2021/04/15 01:38:38;;;;;;;35.35;22.42;;;;;;;8.74;67.59;99080.14;1728186;79;21312;-90
2021/04/15 01:41:36;;;;;;;36.40;23.02;;;;;;;8.72;67.75;99077.25;1680655;84;21638;-87
2021/04/15 02:26:39;;;;;;;30.50;20.77;;;;;;;8.40;68.94;99052.73;1788075;78;21195;-86
2021/04/15 02:29:15;;;;;;;33.75;21.27;;;;;;;8.47;68.74;99060.61;1817001;78;21133;-89
2021/04/15 02:55:43;;;;;;;35.75;21.70;;;;;;;8.43;68.83;99050.73;1805101;77;21177;-87
2021/04/15 02:58:19;;;;;;;29.50;18.87;;;;;;;8.39;69.01;99043.15;1762105;81;21170;-88
2021/04/15 03:59:03;;;;;;;31.33;20.25;;;;;;;9.35;68.03;99054.92;1772677;79;21081;-90
2021/04/15 04:01:33;;;;;;;29.45;19.23;;;;;;;9.24;68.03;99050.94;1787107;80;21279;-89
2021/04/15 04:04:40;;;;;;;30.70;21.57;;;;;;;9.12;68.22;99054.52;1769469;79;21209;-90
2021/04/15 04:13:41;;;;;;;30.90;21.33;;;;;;;9.24;68.21;99064.13;1711297;80;21251;-85
2021/04/15 04:16:47;;;;;;;33.58;23.10;;;;;;;9.17;68.44;99064.25;1653531;85;21214;-88
2021/04/15 05:01:31;;;;;;;53.42;22.80;;;;;;;10.57;64.99;99052.95;1806808;75;21597;-92
2021/04/15 05:04:03;;;;;;;49.48;23.22;;;;;;;10.64;64.90;99053.65;1798923;79;21207;-92
2021/04/15 05:06:32;;;;;;;40.98;24.63;;;;;;;10.81;64.66;99055.39;1795788;79;21310;-90
2021/04/15 05:09:29;;;;;;;63.23;31.40;;;;;;;10.81;64.73;99056.22;1770961;79;21174;-88
2021/04/15 05:11:57;;;;;;;90.53;42.83;;;;;;;10.77;64.81;99057.94;1757273;79;21307;-89
2021/04/15 05:14:27;;;;;;;73.30;36.80;;;;;;;10.71;65.04;99050.51;1800381;79;21158;-88
2021/04/15 05:17:08;;;;;;;46.70;28.45;;;;;;;10.73;65.00;99055.17;1779213;80;21285;-89
2021/04/15 05:19:35;;;;;;;37.90;25.00;;;;;;;10.76;65.00;99057.58;1781996;80;21208;-90
2021/04/15 05:22:06;;;;;;;39.88;26.62;;;;;;;10.81;65.05;99048.78;1781379;80;21310;-88
2021/04/15 05:24:47;;;;;;;32.38;21.45;;;;;;;11.01;64.81;99055.07;1779648;80;21229;-88
2021/04/15 06:12:38;;;;;;;38.53;25.97;;;;;;;11.77;63.87;99046.03;1836625;76;21162;-87
2021/04/15 07:23:33;;;;;;;119.35;32.58;;;;;;;13.55;59.11;99052.20;1730044;79;21276;-80
2021/04/15 07:26:43;;;;;;;38.78;24.87;;;;;;;13.64;58.86;99060.31;1703408;81;21185;-83
2021/04/15 07:29:35;;;;;;;41.15;27.20;;;;;;;13.70;58.49;99043.80;1704486;83;21309;-82
2021/04/15 07:32:47;;;;;;;40.63;25.27;;;;;;;13.76;58.47;99043.22;1703722;83;21667;-85
2021/04/15 07:35:38;;;;;;;36.58;23.77;;;;;;;13.84;58.05;99048.63;1717037;83;21228;-84
2021/04/15 07:38:39;;;;;;;30.25;22.20;;;;;;;14.01;57.95;99048.84;1716676;82;21656;-84
2021/04/15 07:55:00;;;;;;;47.73;20.32;;;;;;;14.76;55.70;99046.02;1771962;79;21234;-79
2021/04/15 07:58:01;;;;;;;32.17;21.15;;;;;;;14.92;55.81;99047.98;1783571;79;21166;-79
2021/04/15 08:00:43;;;;;;;40.30;21.12;;;;;;;15.20;55.46;99040.70;1782961;79;21199;-82
2021/04/15 08:03:42;;;;;;;27.98;20.37;;;;;;;15.50;54.90;99043.92;1778454;80;21132;-84
2021/04/15 08:06:28;;;;;;;27.50;19.73;;;;;;;15.76;53.95;99043.06;1771169;79;21086;-82
2021/04/15 08:09:19;;;;;;;40.23;18.35;;;;;;;15.97;53.16;99044.52;1778072;79;21246;-76
2021/04/15 08:12:35;;;;;;;25.68;17.12;;;;;;;16.16;51.61;99036.28;1727655;81;21170;-78
2021/04/15 08:15:50;;;;;;;22.22;15.93;;;;;;;16.36;50.41;99031.48;1781351;79;21111;-77
2021/04/15 08:18:49;;;;;;;20.80;15.78;;;;;;;16.43;49.66;99035.66;1740727;82;21236;-77
2021/04/15 08:21:39;;;;;;;16.80;13.30;;;;;;;16.34;49.40;99029.98;1718924;81;21597;-77
2021/04/15 08:24:25;;;;;;;50.85;15.88;;;;;;;16.27;48.41;99031.64;1736701;82;21195;-76
2021/04/15 08:27:30;;;;;;;123.45;20.97;;;;;;;16.24;48.70;99033.28;1777834;80;21174;-76
2021/04/15 08:30:25;;;;;;;16.67;11.48;;;;;;;16.24;48.81;99032.80;1764547;81;21198;-76
2021/04/15 08:33:48;;;;;;;17.62;12.73;;;;;;;16.22;48.28;99026.78;1749669;81;21211;-78
2021/04/15 08:37:01;;;;;;;18.35;13.40;;;;;;;16.19;48.52;99026.61;1759032;81;21171;-77
2021/04/15 08:39:54;;;;;;;20.43;14.73;;;;;;;16.26;48.37;99027.30;1753886;80;21201;-77
2021/04/15 08:42:54;;;;;;;24.15;15.18;;;;;;;16.34;48.16;99027.31;1782971;80;21212;-78
2021/04/15 08:45:46;;;;;;;19.02;14.23;;;;;;;16.44;48.19;99026.66;1784759;79;21195;-78
2021/04/15 08:48:40;;;;;;;19.07;14.65;;;;;;;16.59;48.08;99022.05;1799859;79;21256;-78
2021/04/15 08:51:36;;;;;;;17.67;13.05;;;;;;;16.79;48.03;99022.06;1797656;79;21345;-76
2021/04/15 08:54:37;;;;;;;20.12;13.20;;;;;;;17.02;47.12;99014.24;1782951;79;21122;-76
2021/04/15 08:57:34;;;;;;;18.17;13.72;;;;;;;17.23;46.58;99016.07;1757724;80;21161;-78
2021/04/15 09:00:18;;;;;;;20.27;15.70;;;;;;;17.24;46.13;99017.72;1762640;80;21581;-78
2021/04/15 09:03:10;;;;;;;18.57;13.90;;;;;;;17.27;46.80;99020.06;1767858;81;21205;-77
2021/04/15 09:06:10;;;;;;;17.57;13.17;;;;;;;17.34;45.83;99011.20;1777455;79;21599;-77
2021/04/15 09:09:01;;;;;;;20.27;14.65;;;;;;;17.40;45.49;99008.85;1758749;81;21308;-78
2021/04/15 09:12:02;;;;;;;21.52;14.73;;;;;;;17.27;45.44;99006.70;1725144;82;21202;-78
2021/04/15 09:14:59;;;;;;;18.50;13.70;;;;;;;17.11;45.81;99003.53;1736256;81;21156;-77
2021/04/15 09:31:34;;;;;;;19.62;12.35;;;;;;;17.75;44.43;98998.23;1789167;79;21312;-77
2021/04/15 10:45:19;;;;;;;13.83;10.20;;;;;;;17.27;41.97;98978.65;1756430;78;21569;-75
2021/04/15 11:01:32;;;;;;;18.27;12.35;;;;;;;16.98;42.75;98970.66;1714287;79;21330;-75
2021/04/15 11:04:25;;;;;;;21.62;11.60;;;;;;;16.99;42.48;98968.33;1717659;81;21273;-73
2021/04/15 11:07:01;;;;;;;17.50;12.28;;;;;;;16.95;42.26;98966.50;1720831;81;21277;-77
2021/04/15 11:47:05;;;;;;;20.95;12.50;;;;;;;15.39;47.76;98971.73;1738200;77;21208;-76
2021/04/15 11:49:38;;;;;;;20.65;13.60;;;;;;;15.32;48.12;98963.20;1724916;82;21170;-76
2021/04/15 11:52:21;;;;;;;;;;;;;;;15.24;48.16;98967.52;1683383;84;21205;-78
2021/04/15 11:54:59;;;;;;;30.17;13.53;;;;;;;15.12;48.37;98966.09;1700718;84;20214;-79
2021/04/15 11:57:35;;;;;;;26.85;18.42;;;;;;;15.00;49.14;98968.66;1680289;84;21226;-77
2021/04/15 12:19:33;;;;;;;20.25;15.28;;;;;;;14.59;51.70;98970.47;1742867;77;21677;-77
2021/04/15 12:22:26;;;;;;;22.27;16.55;;;;;;;14.59;51.84;98967.33;1759916;80;21150;-78
2021/04/15 12:25:25;;;;;;;23.80;16.95;;;;;;;14.63;51.94;98969.67;1816760;78;21325;-76
2021/04/15 12:49:16;;;;;;;32.25;19.27;;;;;;;15.16;51.14;98947.47;1769586;78;21169;-78
2021/04/15 12:51:48;;;;;;;46.25;28.02;;;;;;;15.29;51.05;98948.88;1727095;81;21238;-77
2021/04/15 12:54:29;;;;;;;26.85;19.05;;;;;;;15.38;50.58;98945.27;1752657;80;21352;-77
2021/04/15 12:57:02;;;;;;;22.02;16.25;;;;;;;15.48;50.60;98950.48;1764457;80;21313;-78
2021/04/15 12:59:36;;;;;;;;;;;;;;;15.08;50.23;98864.89;1726793;82;21183;-79
2021/04/15 13:02:07;;;;;;;29.05;22.25;;;;;;;15.66;49.52;98946.39;1737500;81;20181;-79
2021/04/15 13:04:44;;;;;;;19.48;15.43;;;;;;;15.67;49.54;98948.89;1696269;82;21190;-78
2021/04/15 13:07:23;;;;;;;19.95;14.78;;;;;;;15.72;49.82;98949.24;1712026;82;21144;-79
2021/04/15 13:09:52;;;;;;;25.92;17.40;;;;;;;15.78;49.58;98941.13;1757518;81;21154;-79
2021/04/15 13:12:33;;;;;;;24.52;17.85;;;;;;;15.83;49.46;98953.50;1746574;80;21170;-78
2021/04/15 13:52:10;;;;;;;38.13;15.70;;;;;;;16.42;46.37;98931.28;1700334;80;21193;-80
2021/04/15 13:54:45;;;;;;;18.00;12.58;;;;;;;16.37;45.91;98929.09;1678589;83;21212;-80
2021/04/15 13:57:20;;;;;;;45.80;15.72;;;;;;;16.24;45.47;98922.58;1701869;83;21344;-84
2021/04/15 13:59:58;;;;;;;29.37;14.65;;;;;;;16.13;45.68;98924.56;1697391;83;21222;-78
2021/04/15 14:02:42;;;;;;;33.58;14.00;;;;;;;16.05;45.88;98925.38;1722015;83;21179;-76
2021/04/15 14:49:45;;;;;;;15.72;10.45;;;;;;;14.37;52.89;98934.06;1723948;78;21380;-76
2021/04/15 14:52:25;;;;;;;10.65;8.33;;;;;;;14.15;53.20;98936.66;1666314;85;21187;-77
2021/04/15 14:54:54;;;;;;;19.30;12.63;;;;;;;14.00;53.93;98936.36;1645525;84;21178;-77
2021/04/15 14:57:26;;;;;;;16.20;12.88;;;;;;;13.89;54.32;98944.03;1708901;82;21169;-76
2021/04/15 15:00:15;;;;;;;13.17;9.90;;;;;;;13.80;54.29;98942.75;1715305;83;21190;-77
2021/04/15 15:22:32;;;;;;;13.22;10.98;;;;;;;15.10;52.75;98946.77;1783145;80;22669;-68
2021/04/15 15:25:00;;;;;;;18.92;13.60;;;;;;;15.49;51.86;98935.66;1758926;81;21146;-68
2021/04/15 15:27:38;;;;;;;17.45;12.93;;;;;;;15.86;51.00;98935.83;1796724;79;21279;-68
2021/04/15 15:30:32;;;;;;;43.23;29.07;;;;;;;16.21;50.48;98937.08;1794661;79;21162;-68
2021/04/15 15:33:32;;;;;;;50.00;30.50;;;;;;;16.52;49.76;98933.77;1775181;80;21151;-68
2021/04/15 15:36:10;;;;;;;67.45;38.42;;;;;;;16.76;49.45;98950.80;1764178;81;21326;-68
2021/04/15 16:22:23;;;;;;;43.38;29.10;;;;;;;16.44;51.48;98939.94;1788230;79;22972;-71
2021/04/15 16:24:54;;;;;;;25.75;18.12;;;;;;;16.23;51.68;98940.42;1733882;82;21155;-70
2021/04/15 16:27:21;;;;;;;26.95;18.05;;;;;;;15.84;52.55;98941.84;1754179;80;21169;-70
2021/04/15 16:29:50;;;;;;;19.07;14.13;;;;;;;15.44;53.46;98953.95;1751460;80;21713;-72
2021/04/15 16:32:19;;;;;;;21.10;14.68;;;;;;;15.09;54.59;98946.45;1736536;80;21123;-71
2021/04/15 16:34:49;;;;;;;30.72;18.40;;;;;;;14.75;55.86;98954.67;1749565;80;21108;-72
2021/04/15 16:37:20;;;;;;;51.42;29.35;;;;;;;14.36;56.75;98956.80;1752061;82;21127;-73
2021/04/15 16:39:49;;;;;;;73.75;40.83;;;;;;;14.03;57.65;98953.84;1744404;80;22238;-72
2021/04/15 16:42:20;;;;;;;43.98;27.45;;;;;;;13.92;58.33;98958.34;1728236;82;21135;-72
2021/04/15 16:44:51;;;;;;;26.70;19.10;;;;;;;13.72;58.91;98960.77;1739456;80;21312;-73
2021/04/15 16:47:22;;;;;;;20.30;16.12;;;;;;;13.46;59.30;98963.28;1739130;82;21096;-72
2021/04/15 16:49:50;;;;;;;18.87;14.25;;;;;;;13.16;60.07;98968.66;1756829;80;21662;-71
2021/04/15 16:52:21;;;;;;;19.52;12.47;;;;;;;13.00;60.62;98979.02;1681684;83;21824;-71
2021/04/15 16:54:51;;;;;;;19.50;12.30;;;;;;;12.82;61.04;98975.75;1730089;82;22349;-71
2021/04/15 16:57:18;;;;;;;17.20;13.80;;;;;;;12.83;61.33;98973.95;1703388;82;21294;-71
2021/04/15 16:59:45;;;;;;;16.65;13.75;;;;;;;12.61;61.78;98974.59;1709378;84;21214;-71
2021/04/15 17:02:14;;;;;;;18.75;13.78;;;;;;;12.61;61.78;98974.59;1691309;82;21182;-72
2021/04/15 17:04:43;;;;;;;21.30;15.45;;;;;;;12.46;62.36;98977.64;1686860;84;21119;-72
2021/04/15 17:07:15;;;;;;;24.35;16.80;;;;;;;12.34;62.80;98981.90;1708204;82;21348;-71
2021/04/15 17:09:44;;;;;;;22.98;14.75;;;;;;;12.19;63.19;98982.30;1714611;82;21654;-70
2021/04/15 17:12:13;;;;;;;23.35;17.20;;;;;;;12.14;63.59;98995.13;1690414;83;21331;-71
2021/04/15 17:14:40;;;;;;;18.55;14.33;;;;;;;12.15;63.47;98994.17;1683408;85;21194;-72
2021/04/15 17:17:08;;;;;;;16.90;12.13;;;;;;;12.06;63.79;98997.14;1683432;84;21372;-70
2021/04/15 17:19:35;;;;;;;20.52;13.72;;;;;;;11.97;64.09;98997.97;1682085;83;21202;-71
2021/04/15 17:22:04;;;;;;;24.00;16.42;;;;;;;11.92;64.26;98995.67;1672091;84;21115;-70
2021/04/15 17:24:35;;;;;;;23.47;15.85;;;;;;;11.88;64.49;99005.34;1679541;84;21520;-71
2021/04/15 17:27:05;;;;;;;21.73;16.10;;;;;;;11.73;64.75;99006.22;1670794;86;21143;-71
2021/04/15 17:29:33;;;;;;;16.37;11.43;;;;;;;11.63;65.00;99011.47;1652439;86;21690;-71
2021/04/15 17:32:01;;;;;;;18.98;13.88;;;;;;;11.67;65.09;99013.38;1676553;84;21178;-71
2021/04/15 17:34:29;;;;;;;25.75;16.93;;;;;;;11.81;64.67;99016.97;1676238;84;21199;-69
2021/04/15 17:36:57;;;;;;;18.98;13.35;;;;;;;11.80;64.72;99021.91;1670788;84;21330;-70
2021/04/15 17:39:28;;;;;;;25.12;17.02;;;;;;;11.70;64.86;99019.71;1675110;84;21169;-71
2021/04/15 17:41:57;;;;;;;24.52;15.63;;;;;;;11.59;65.29;99025.45;1661391;86;21198;-71
2021/04/15 17:44:25;;;;;;;20.85;14.65;;;;;;;11.50;65.44;99018.81;1672810;85;21179;-70
2021/04/15 17:46:56;;;;;;;24.87;15.85;;;;;;;11.47;65.78;99026.50;1657793;86;21207;-71
2021/04/15 17:49:26;;;;;;;26.37;16.97;;;;;;;11.54;65.63;99025.02;1670399;86;21599;-71
2021/04/15 17:51:55;;;;;;;18.75;13.55;;;;;;;11.74;65.20;99033.89;1670863;86;21179;-71
2021/04/15 17:54:24;;;;;;;19.98;12.88;;;;;;;11.73;64.93;99028.73;1648678;86;21151;-71
2021/04/15 17:56:52;;;;;;;20.52;13.88;;;;;;;11.66;65.12;99027.58;1670589;86;21203;-71
2021/04/15 17:59:19;;;;;;;22.87;14.53;;;;;;;11.58;65.21;99039.66;1671195;86;21207;-71
2021/04/15 18:01:46;;;;;;;21.90;14.30;;;;;;;11.53;65.15;99035.25;1670819;86;21203;-70
2021/04/15 18:04:13;;;;;;;18.60;12.37;;;;;;;11.47;65.25;99031.33;1671221;86;21215;-70
2021/04/15 18:06:44;;;;;;;17.95;13.20;;;;;;;11.45;65.44;99044.34;1670876;86;21191;-71
2021/04/15 18:09:11;;;;;;;19.95;14.07;;;;;;;11.55;65.28;99042.58;1671145;86;21765;-70
2021/04/15 18:11:38;;;;;;;24.32;17.05;;;;;;;11.67;65.06;99047.80;1670946;85;21201;-71
2021/04/15 18:14:05;;;;;;;27.48;17.15;;;;;;;11.58;65.14;99042.31;1670991;86;21611;-71
2021/04/15 18:16:34;;;;;;;31.05;17.70;;;;;;;11.50;65.37;99043.47;1670920;85;21119;-71
2021/04/15 18:19:04;;;;;;;24.87;16.27;;;;;;;11.42;65.53;99035.32;1671011;84;21191;-71
2021/04/15 18:21:34;;;;;;;18.10;12.70;;;;;;;11.40;65.69;99042.58;1679963;84;21665;-71
2021/04/15 18:24:01;;;;;;;27.62;17.85;;;;;;;11.36;65.89;99040.67;1695912;84;21181;-70
2021/04/15 18:26:29;;;;;;;30.32;19.25;;;;;;;11.38;65.83;99045.83;1696010;84;21549;-71
2021/04/15 18:28:58;;;;;;;18.00;12.75;;;;;;;11.48;65.62;99040.09;1695457;84;21172;-71
2021/04/15 18:31:25;;;;;;;23.83;11.60;;;;;;;11.43;65.62;99031.71;1695869;84;21121;-71
2021/04/15 18:33:53;;;;;;;14.90;10.20;;;;;;;11.35;65.79;99047.42;1695574;84;21176;-71
2021/04/15 18:36:23;;;;;;;41.40;23.42;;;;;;;11.29;65.81;99040.36;1695409;84;21168;-71
2021/04/15 18:38:52;;;;;;;32.40;19.65;;;;;;;11.31;65.81;99035.75;1694679;84;21205;-72
2021/04/15 18:41:24;;;;;;;26.85;17.12;;;;;;;11.34;65.80;99032.50;1693640;84;21258;-71
2021/04/15 18:43:53;;;;;;;25.12;15.20;;;;;;;11.37;65.77;99035.73;1695749;84;21165;-72
2021/04/15 18:46:22;;;;;;;38.73;25.20;;;;;;;11.39;65.75;99036.92;1695605;84;21553;-72
2021/04/15 18:48:51;;;;;;;28.27;16.67;;;;;;;11.44;65.73;99029.42;1695386;84;21161;-72
2021/04/15 18:51:19;;;;;;;48.48;30.15;;;;;;;11.53;65.56;99024.66;1695912;84;21133;-73
2021/04/15 18:53:47;;;;;;;52.13;35.90;;;;;;;11.57;65.71;99026.09;1691150;84;21176;-71
2021/04/15 18:56:14;;;;;;;56.28;36.55;;;;;;;11.55;65.77;99025.37;1695777;84;21124;-71
2021/04/15 18:58:43;;;;;;;51.25;33.20;;;;;;;11.48;65.93;99025.53;1695778;84;21188;-71
2021/04/15 19:01:11;;;;;;;51.00;32.63;;;;;;;11.42;66.01;99028.23;1695808;84;21798;-71
2021/04/15 19:03:38;;;;;;;50.30;31.25;;;;;;;11.35;66.11;99020.95;1695703;84;21160;-71
2021/04/15 19:06:08;;;;;;;39.73;26.42;;;;;;;11.21;66.34;99023.44;1695774;84;21295;-70
2021/04/15 19:08:35;;;;;;;29.35;19.80;;;;;;;11.09;66.59;99026.65;1670649;84;21327;-70
2021/04/15 19:11:04;;;;;;;25.08;16.65;;;;;;;11.08;66.75;99022.31;1695320;84;22266;-71
2021/04/15 19:13:32;;;;;;;33.67;18.82;;;;;;;11.20;66.55;99017.32;1690637;84;21156;-71
2021/04/15 19:16:00;;;;;;;146.77;56.88;;;;;;;11.19;66.59;99016.96;1695542;84;21159;-71
2021/04/15 19:18:32;;;;;;;124.12;49.77;;;;;;;11.15;66.72;99020.81;1695558;84;21565;-72
2021/04/15 19:21:00;;;;;;;69.75;33.05;;;;;;;11.12;66.79;99015.80;1685071;84;21160;-71
2021/04/15 19:23:28;;;;;;;50.38;26.70;;;;;;;11.10;66.86;99014.60;1665599;86;21163;-71
2021/04/15 19:25:57;;;;;;;30.92;17.00;;;;;;;11.07;67.02;99010.05;1679794;84;21834;-70
2021/04/15 19:28:26;;;;;;;17.70;12.55;;;;;;;10.97;67.15;99009.51;1702508;83;21284;-71
2021/04/15 19:30:55;;;;;;;15.70;12.03;;;;;;;10.98;67.24;99011.66;1725263;83;21191;-73
2021/04/15 19:33:24;;;;;;;14.30;10.38;;;;;;;11.13;66.94;99005.56;1711126;83;21170;-70
2021/04/15 19:35:51;;;;;;;15.80;12.00;;;;;;;11.09;67.08;99003.66;1690317;84;21197;-71
2021/04/15 19:38:21;;;;;;;17.20;12.65;;;;;;;10.96;67.42;99008.32;1672104;84;21194;-72
2021/04/15 19:40:50;;;;;;;21.12;15.68;;;;;;;10.87;67.76;99002.45;1692617;84;21166;-71
2021/04/15 19:43:18;;;;;;;16.93;12.65;;;;;;;10.78;68.13;99005.38;1698673;83;21207;-71
2021/04/15 19:45:46;;;;;;;16.75;12.25;;;;;;;10.71;68.40;98994.48;1705911;83;21357;-71
2021/04/15 19:48:16;;;;;;;15.68;11.95;;;;;;;10.73;68.43;98998.31;1701210;83;21150;-71
2021/04/15 19:50:49;;;;;;;16.73;11.60;;;;;;;10.86;68.22;98998.98;1723734;83;21289;-71
2021/04/15 19:53:19;;;;;;;15.40;12.07;;;;;;;10.89;68.25;98992.09;1725346;83;22174;-71
2021/04/15 19:55:47;;;;;;;13.65;10.65;;;;;;;10.84;68.47;98995.61;1697588;83;21179;-72
2021/04/15 19:58:16;;;;;;;11.80;9.65;;;;;;;10.76;68.67;98994.11;1692014;83;21158;-71
2021/04/15 20:00:44;;;;;;;12.73;9.85;;;;;;;10.64;69.05;98995.97;1694155;84;21163;-71
2021/04/15 20:03:12;;;;;;;13.10;10.60;;;;;;;10.62;69.12;98992.60;1696473;84;21582;-72
2021/04/15 20:05:40;;;;;;;14.30;10.28;;;;;;;10.72;68.93;98999.30;1695223;84;21195;-71
2021/04/15 20:08:11;;;;;;;15.08;11.40;;;;;;;10.69;69.06;98990.28;1704017;83;21190;-71
2021/04/15 20:10:42;;;;;;;16.35;12.40;;;;;;;10.61;69.29;98990.45;1704697;83;21624;-71
2021/04/15 20:13:12;;;;;;;18.65;11.18;;;;;;;10.54;69.55;98993.23;1702756;83;21184;-71
2021/04/15 20:15:42;;;;;;;19.42;11.80;;;;;;;10.60;69.55;98987.91;1693916;84;21202;-71
2021/04/15 20:18:09;;;;;;;19.52;12.90;;;;;;;10.67;69.43;98990.91;1692080;83;21167;-71
2021/04/15 20:20:38;;;;;;;18.07;12.30;;;;;;;10.54;69.81;98989.73;1707178;83;21189;-71
2021/04/15 20:23:07;;;;;;;14.93;11.10;;;;;;;10.40;70.23;98984.29;1700803;84;21152;-71
2021/04/15 20:25:36;;;;;;;15.23;11.25;;;;;;;10.30;70.62;98982.34;1698680;84;21166;-71
2021/04/15 20:28:06;;;;;;;14.47;10.82;;;;;;;10.31;70.82;98981.39;1701638;82;21193;-70
2021/04/15 20:30:36;;;;;;;13.62;10.68;;;;;;;10.42;70.63;98983.66;1756781;82;21775;-69
2021/04/15 20:33:11;;;;;;;15.40;11.53;;;;;;;10.37;70.78;98976.59;1765842;80;21118;-70
2021/04/15 20:35:39;;;;;;;13.75;10.43;;;;;;;10.28;71.05;98986.94;1766120;80;21694;-70
2021/04/15 20:38:10;;;;;;;14.90;10.65;;;;;;;10.22;71.31;98987.42;1757211;81;21666;-70
2021/04/15 20:40:38;;;;;;;12.07;9.08;;;;;;;10.15;71.52;98976.98;1708381;83;21186;-70
2021/04/15 20:43:07;;;;;;;16.07;12.10;;;;;;;10.17;71.54;98984.32;1714788;83;21179;-71
2021/04/15 20:45:37;;;;;;;13.75;11.15;;;;;;;10.28;71.31;98984.30;1702089;83;21657;-70
2021/04/15 20:48:06;;;;;;;15.25;11.30;;;;;;;10.25;71.52;98981.88;1700144;83;21162;-70
2021/04/15 20:50:35;;;;;;;14.90;11.12;;;;;;;10.17;71.70;98977.72;1710151;83;21218;-70
2021/04/15 20:53:04;;;;;;;12.28;10.53;;;;;;;10.09;71.95;98981.44;1703392;83;21336;-71
2021/04/15 20:55:31;;;;;;;13.62;10.08;;;;;;;10.07;72.08;98971.50;1701737;83;21182;-71
2021/04/15 20:57:59;;;;;;;13.98;10.40;;;;;;;10.14;72.04;98973.52;1715339;83;21659;-71
2021/04/15 21:00:34;;;;;;;11.68;9.45;;;;;;;10.34;71.72;98977.66;1705567;83;21706;-69
2021/04/15 21:03:02;;;;;;;13.10;8.98;;;;;;;10.39;71.55;98974.19;1722049;83;21147;-70
2021/04/15 21:05:32;;;;;;;13.38;9.95;;;;;;;10.30;71.79;98966.48;1718947;83;21183;-71
2021/04/15 21:07:59;;;;;;;12.53;9.60;;;;;;;10.18;72.08;98960.91;1753581;80;21482;-71
2021/04/15 21:10:31;;;;;;;12.75;9.58;;;;;;;10.12;72.32;98966.68;1754290;81;21327;-70
2021/04/15 21:12:59;;;;;;;12.60;8.98;;;;;;;10.22;72.20;98974.22;1752478;82;21300;-70
2021/04/15 21:15:26;;;;;;;12.07;9.03;;;;;;;10.23;72.25;98972.41;1737951;81;21130;-70
2021/04/15 21:17:55;;;;;;;11.75;8.98;;;;;;;10.16;72.62;98978.67;1736646;82;21126;-71
2021/04/15 21:20:29;;;;;;;13.68;8.63;;;;;;;10.05;72.87;98982.20;1736391;82;21130;-70
2021/04/15 21:22:57;;;;;;;11.38;8.95;;;;;;;10.08;72.98;98978.47;1739709;82;21285;-70
2021/04/15 21:25:24;;;;;;;10.82;8.85;;;;;;;10.17;72.79;98976.39;1739436;82;21142;-71
2021/04/15 21:27:52;;;;;;;11.38;8.90;;;;;;;10.19;72.99;98984.19;1722056;81;21189;-70
2021/04/15 21:30:22;;;;;;;13.08;9.08;;;;;;;10.16;73.03;98982.64;1702289;84;21182;-70
2021/04/15 21:32:49;;;;;;;12.78;8.45;;;;;;;10.10;73.27;98975.20;1703507;84;21320;-70
2021/04/15 21:35:18;;;;;;;12.73;9.43;;;;;;;10.10;73.22;98969.92;1707551;84;21158;-70
2021/04/15 21:37:47;;;;;;;11.03;9.03;;;;;;;10.18;73.09;98970.16;1707671;84;21110;-70
2021/04/15 21:40:16;;;;;;;12.60;9.18;;;;;;;10.12;73.27;98971.97;1707547;84;21154;-69
2021/04/15 21:42:44;;;;;;;13.30;9.33;;;;;;;10.00;73.58;98975.95;1707594;84;21717;-70
2021/04/15 21:45:16;;;;;;;11.25;8.35;;;;;;;9.94;73.73;98975.12;1707582;83;21135;-70
2021/04/15 21:47:45;;;;;;;12.03;8.93;;;;;;;10.06;73.52;98964.53;1707786;84;21268;-69
2021/04/15 21:50:17;;;;;;;13.72;9.25;;;;;;;10.02;73.67;98969.71;1707796;84;21110;-70
2021/04/15 21:52:44;;;;;;;14.95;9.50;;;;;;;9.90;73.87;98961.80;1707665;84;21253;-69
2021/04/15 21:55:12;;;;;;;12.10;9.25;;;;;;;9.85;74.11;98969.26;1707508;84;21170;-70
2021/04/15 21:57:41;;;;;;;16.57;11.18;;;;;;;9.92;74.13;98973.56;1707637;84;21530;-70
2021/04/15 22:00:28;;;;;;;13.72;10.10;;;;;;;9.90;74.09;98965.77;1707394;84;21127;-70
2021/04/15 22:02:59;;;;;;;15.53;10.18;;;;;;;9.78;74.42;98966.73;1707512;84;21666;-70
2021/04/15 22:05:28;;;;;;;12.15;9.25;;;;;;;9.67;74.91;98961.83;1707720;84;21149;-70
2021/04/15 22:07:58;;;;;;;14.45;10.78;;;;;;;9.68;75.04;98961.38;1707379;84;21320;-69
2021/04/15 22:10:31;;;;;;;14.50;10.65;;;;;;;9.70;75.12;98957.28;1707540;84;21232;-70
2021/04/15 22:13:00;;;;;;;14.80;9.23;;;;;;;9.62;75.42;98952.61;1707477;84;21158;-70
2021/04/15 22:15:29;;;;;;;16.30;10.60;;;;;;;9.54;75.55;98950.58;1707304;84;21202;-69
2021/04/15 22:17:57;;;;;;;13.40;9.90;;;;;;;9.61;75.36;98951.75;1707276;84;21206;-70
2021/04/15 22:20:31;;;;;;;19.77;11.48;;;;;;;9.73;75.06;98951.74;1707630;84;21166;-70
2021/04/15 22:23:00;;;;;;;13.90;9.68;;;;;;;9.67;75.12;98947.80;1707377;84;21276;-69
2021/04/15 22:25:34;;;;;;;11.83;9.28;;;;;;;9.61;75.35;98948.28;1704687;84;21170;-70
2021/04/15 22:28:15;;;;;;;18.55;12.73;;;;;;;9.59;75.43;98951.05;1732701;81;21832;-69
2021/04/15 22:30:44;;;;;;;16.23;11.08;;;;;;;9.70;75.24;98948.04;1744171;82;21094;-70
2021/04/15 22:33:13;;;;;;;18.82;11.38;;;;;;;9.64;75.30;98950.20;1748793;82;21178;-70
2021/04/15 22:35:42;;;;;;;13.28;8.95;;;;;;;9.58;75.49;98949.37;1741259;82;21150;-70
2021/04/15 22:38:11;;;;;;;10.70;8.80;;;;;;;9.53;75.26;98942.30;1692447;84;21152;-70
2021/04/15 22:40:42;;;;;;;10.70;7.78;;;;;;;9.62;75.07;98940.23;1705418;84;21222;-70
2021/04/15 22:43:11;;;;;;;11.48;8.05;;;;;;;9.59;75.02;98941.81;1717579;83;21185;-70
2021/04/15 22:45:39;;;;;;;8.60;6.60;;;;;;;9.49;75.26;98943.02;1717194;83;21292;-70
2021/04/15 22:48:09;;;;;;;9.38;6.78;;;;;;;9.42;75.46;98935.70;1717022;83;21200;-70
2021/04/15 22:50:42;;;;;;;11.63;8.10;;;;;;;9.48;75.23;98940.00;1668037;83;21562;-69
2021/04/15 22:53:17;;;;;;;11.12;8.18;;;;;;;9.54;75.02;98937.38;1709923;82;21840;-69
2021/04/15 22:55:44;;;;;;;11.00;8.23;;;;;;;9.47;75.20;98932.22;1706247;83;21127;-69
2021/04/15 22:58:17;;;;;;;10.35;7.35;;;;;;;9.39;75.32;98938.09;1710055;83;21170;-70
2021/04/15 23:00:47;;;;;;;11.95;7.87;;;;;;;9.43;75.24;98940.02;1716725;83;21319;-70
2021/04/15 23:03:16;;;;;;;11.08;8.18;;;;;;;9.50;75.06;98935.92;1718199;83;21166;-70
2021/04/15 23:05:43;;;;;;;13.30;8.63;;;;;;;9.45;75.14;98932.80;1716129;83;21170;-70
2021/04/15 23:08:11;;;;;;;11.78;7.58;;;;;;;9.42;75.26;98943.61;1712146;83;21191;-70
2021/04/15 23:10:44;;;;;;;9.78;7.15;;;;;;;9.42;75.20;98930.42;1717925;83;21652;-70
2021/04/15 23:13:14;;;;;;;11.22;8.10;;;;;;;9.55;74.86;98926.33;1709757;83;21182;-70
2021/04/15 23:15:41;;;;;;;12.13;8.40;;;;;;;9.51;74.76;98935.82;1705864;83;21191;-70
2021/04/15 23:18:10;;;;;;;13.58;8.23;;;;;;;9.42;75.05;98930.42;1687831;84;21143;-70
2021/04/15 23:20:50;;;;;;;14.95;8.58;;;;;;;9.37;75.25;98936.05;1705349;84;21320;-70
2021/04/15 23:23:20;;;;;;;10.23;7.75;;;;;;;9.46;75.05;98922.16;1745213;81;21570;-69
2021/04/15 23:25:49;;;;;;;8.55;6.85;;;;;;;9.57;74.78;98929.20;1693187;84;21280;-70
2021/04/15 23:28:20;;;;;;;8.75;6.25;;;;;;;9.54;74.84;98924.64;1725355;83;21213;-70
2021/04/15 23:30:51;;;;;;;8.53;6.67;;;;;;;9.47;74.82;98928.25;1725720;82;21446;-69
2021/04/15 23:33:22;;;;;;;8.33;6.17;;;;;;;9.39;74.87;98934.14;1687710;83;21165;-69
2021/04/15 23:35:49;;;;;;;9.60;6.75;;;;;;;9.48;74.76;98934.73;1692075;84;21185;-70
2021/04/15 23:38:18;;;;;;;8.35;6.25;;;;;;;9.45;74.77;98928.84;1715697;83;21137;-70
2021/04/15 23:40:47;;;;;;;10.25;6.70;;;;;;;9.37;74.98;98934.73;1731152;83;21121;-70
2021/04/15 23:43:17;;;;;;;8.68;6.67;;;;;;;9.30;75.17;98931.73;1730108;82;21153;-71
2021/04/15 23:45:45;;;;;;;8.15;6.35;;;;;;;9.35;75.14;98934.86;1704435;83;21173;-70
2021/04/15 23:48:14;;;;;;;8.73;6.95;;;;;;;9.47;74.81;98930.89;1702077;83;21151;-70
2021/04/15 23:50:43;;;;;;;9.00;6.67;;;;;;;9.41;74.90;98937.97;1731160;82;21205;-70
2021/04/15 23:53:10;;;;;;;9.40;6.60;;;;;;;9.34;75.01;98934.98;1717310;83;21181;-70